sensor_id;sensor_type;location;lat;lon;timestamp;temperature;humidity
18225;DHT22;9237;48.590;8.854;2022-09-21T00:00:12;5.90;99.90
18225;DHT22;9237;48.590;8.854;2022-09-21T00:02:39;6.00;99.90
18225;DHT22;9237;48.590;8.854;2022-09-21T00:05:06;5.90;99.90
18225;DHT22;9237;48.590;8.854;2022-09-21T00:07:35;6.00;99.90
18225;DHT22;9237;48.590;8.854;2022-09-21T00:10:02;6.00;99.90
18225;DHT22;9237;48.590;8.854;2022-09-21T00:12:29;6.00;99.90
18225;DHT22;9237;48.590;8.854;2022-09-21T00:14:56;5.90;99.90
18225;DHT22;9237;48.590;8.854;2022-09-21T00:17:23;6.00;99.90
18225;DHT22;9237;48.590;8.854;2022-09-21T00:19:50;5.50;99.90
18225;DHT22;9237;48.590;8.854;2022-09-21T00:22:16;5.50;99.90
18225;DHT22;9237;48.590;8.854;2022-09-21T00:24:45;5.60;99.90
18225;DHT22;9237;48.590;8.854;2022-09-21T00:27:11;5.40;99.90
18225;DHT22;9237;48.590;8.854;2022-09-21T00:29:38;5.20;99.90
18225;DHT22;9237;48.590;8.854;2022-09-21T00:32:05;5.10;99.90
18225;DHT22;9237;48.590;8.854;2022-09-21T00:34:32;4.90;99.90
18225;DHT22;9237;48.590;8.854;2022-09-21T00:36:59;4.90;99.90
18225;DHT22;9237;48.590;8.854;2022-09-21T00:39:25;4.90;99.90
18225;DHT22;9237;48.590;8.854;2022-09-21T00:41:54;4.80;99.90
18225;DHT22;9237;48.590;8.854;2022-09-21T00:44:31;4.70;99.90
18225;DHT22;9237;48.590;8.854;2022-09-21T00:47:03;4.70;99.90
18225;DHT22;9237;48.590;8.854;2022-09-21T00:49:34;4.80;99.90
18225;DHT22;9237;48.590;8.854;2022-09-21T00:52:03;5.00;99.90
18225;DHT22;9237;48.590;8.854;2022-09-21T00:54:33;5.30;99.90
18225;DHT22;9237;48.590;8.854;2022-09-21T00:57:04;5.40;99.90
18225;DHT22;9237;48.590;8.854;2022-09-21T00:59:34;5.20;99.90
18225;DHT22;9237;48.590;8.854;2022-09-21T01:02:03;5.10;99.90
18225;DHT22;9237;48.590;8.854;2022-09-21T01:04:30;4.90;99.90
18225;DHT22;9237;48.590;8.854;2022-09-21T01:07:00;4.80;99.90
18225;DHT22;9237;48.590;8.854;2022-09-21T01:09:28;4.80;99.90
18225;DHT22;9237;48.590;8.854;2022-09-21T01:12:07;4.90;99.90
18225;DHT22;9237;48.590;8.854;2022-09-21T01:14:55;4.90;99.90
18225;DHT22;9237;48.590;8.854;2022-09-21T01:17:31;5.00;99.90
18225;DHT22;9237;48.590;8.854;2022-09-21T01:20:41;4.90;99.90
18225;DHT22;9237;48.590;8.854;2022-09-21T01:23:33;4.90;99.90
18225;DHT22;9237;48.590;8.854;2022-09-21T01:26:12;5.00;99.90
18225;DHT22;9237;48.590;8.854;2022-09-21T01:29:10;5.10;99.90
18225;DHT22;9237;48.590;8.854;2022-09-21T01:31:40;5.00;99.90
18225;DHT22;9237;48.590;8.854;2022-09-21T01:34:12;5.00;99.90
18225;DHT22;9237;48.590;8.854;2022-09-21T01:36:42;4.90;99.90
18225;DHT22;9237;48.590;8.854;2022-09-21T01:39:12;4.90;99.90
18225;DHT22;9237;48.590;8.854;2022-09-21T01:41:43;4.90;99.90
18225;DHT22;9237;48.590;8.854;2022-09-21T01:44:16;4.90;99.90
18225;DHT22;9237;48.590;8.854;2022-09-21T01:46:45;5.00;99.90
18225;DHT22;9237;48.590;8.854;2022-09-21T01:49:16;5.00;99.90
18225;DHT22;9237;48.590;8.854;2022-09-21T01:51:48;5.00;99.90
18225;DHT22;9237;48.590;8.854;2022-09-21T01:54:21;4.90;99.90
18225;DHT22;9237;48.590;8.854;2022-09-21T01:56:50;4.90;99.90
18225;DHT22;9237;48.590;8.854;2022-09-21T01:59:25;4.90;99.90
18225;DHT22;9237;48.590;8.854;2022-09-21T02:01:56;4.80;99.90
18225;DHT22;9237;48.590;8.854;2022-09-21T02:04:24;4.60;99.90
18225;DHT22;9237;48.590;8.854;2022-09-21T02:06:51;4.60;99.90
18225;DHT22;9237;48.590;8.854;2022-09-21T02:09:18;4.60;99.90
18225;DHT22;9237;48.590;8.854;2022-09-21T02:11:45;4.70;99.90
18225;DHT22;9237;48.590;8.854;2022-09-21T02:14:15;4.80;99.90
18225;DHT22;9237;48.590;8.854;2022-09-21T02:16:48;5.00;99.90
18225;DHT22;9237;48.590;8.854;2022-09-21T02:19:29;5.00;99.90
18225;DHT22;9237;48.590;8.854;2022-09-21T02:22:01;5.00;99.90
18225;DHT22;9237;48.590;8.854;2022-09-21T02:24:37;4.90;99.90
18225;DHT22;9237;48.590;8.854;2022-09-21T02:27:09;4.80;99.90
18225;DHT22;9237;48.590;8.854;2022-09-21T02:29:47;4.60;99.90
18225;DHT22;9237;48.590;8.854;2022-09-21T02:32:24;4.60;99.90
18225;DHT22;9237;48.590;8.854;2022-09-21T02:34:59;4.60;99.90
18225;DHT22;9237;48.590;8.854;2022-09-21T02:37:32;4.40;99.90
18225;DHT22;9237;48.590;8.854;2022-09-21T02:40:05;4.30;99.90
18225;DHT22;9237;48.590;8.854;2022-09-21T02:42:38;4.20;99.90
18225;DHT22;9237;48.590;8.854;2022-09-21T02:45:12;4.10;99.90
18225;DHT22;9237;48.590;8.854;2022-09-21T02:47:45;4.10;99.90
18225;DHT22;9237;48.590;8.854;2022-09-21T02:50:18;4.10;99.90
18225;DHT22;9237;48.590;8.854;2022-09-21T02:52:46;4.30;99.90
18225;DHT22;9237;48.590;8.854;2022-09-21T02:55:14;4.20;99.90
18225;DHT22;9237;48.590;8.854;2022-09-21T02:57:43;4.10;99.90
18225;DHT22;9237;48.590;8.854;2022-09-21T03:00:11;3.90;99.90
18225;DHT22;9237;48.590;8.854;2022-09-21T03:02:43;3.80;99.90
18225;DHT22;9237;48.590;8.854;2022-09-21T03:05:12;4.00;99.90
18225;DHT22;9237;48.590;8.854;2022-09-21T03:07:39;4.20;99.90
18225;DHT22;9237;48.590;8.854;2022-09-21T03:10:06;4.10;99.90
18225;DHT22;9237;48.590;8.854;2022-09-21T03:12:33;4.10;99.90
18225;DHT22;9237;48.590;8.854;2022-09-21T03:15:01;4.20;99.90
18225;DHT22;9237;48.590;8.854;2022-09-21T03:17:28;4.30;99.90
18225;DHT22;9237;48.590;8.854;2022-09-21T03:19:56;4.20;99.90
18225;DHT22;9237;48.590;8.854;2022-09-21T03:22:23;4.20;99.90
18225;DHT22;9237;48.590;8.854;2022-09-21T03:24:50;4.30;99.90
18225;DHT22;9237;48.590;8.854;2022-09-21T03:27:22;4.40;99.90
18225;DHT22;9237;48.590;8.854;2022-09-21T03:29:49;4.20;99.90
18225;DHT22;9237;48.590;8.854;2022-09-21T03:32:16;4.00;99.90
18225;DHT22;9237;48.590;8.854;2022-09-21T03:34:43;3.70;99.90
18225;DHT22;9237;48.590;8.854;2022-09-21T03:37:12;3.70;99.90
18225;DHT22;9237;48.590;8.854;2022-09-21T03:39:38;3.50;99.90
18225;DHT22;9237;48.590;8.854;2022-09-21T03:42:05;3.50;99.90
18225;DHT22;9237;48.590;8.854;2022-09-21T03:44:34;3.40;99.90
18225;DHT22;9237;48.590;8.854;2022-09-21T03:47:02;3.40;99.90
18225;DHT22;9237;48.590;8.854;2022-09-21T03:49:31;3.30;99.90
18225;DHT22;9237;48.590;8.854;2022-09-21T03:51:58;3.30;99.90
18225;DHT22;9237;48.590;8.854;2022-09-21T03:54:26;3.40;99.90
18225;DHT22;9237;48.590;8.854;2022-09-21T03:56:52;3.50;99.90
18225;DHT22;9237;48.590;8.854;2022-09-21T03:59:19;3.70;99.90
18225;DHT22;9237;48.590;8.854;2022-09-21T04:01:46;3.80;99.90
18225;DHT22;9237;48.590;8.854;2022-09-21T04:04:13;3.70;99.90
18225;DHT22;9237;48.590;8.854;2022-09-21T04:06:41;3.80;99.90
18225;DHT22;9237;48.590;8.854;2022-09-21T04:09:10;3.90;99.90
18225;DHT22;9237;48.590;8.854;2022-09-21T04:11:39;3.90;99.90
18225;DHT22;9237;48.590;8.854;2022-09-21T04:14:06;3.90;99.90
18225;DHT22;9237;48.590;8.854;2022-09-21T04:16:32;3.80;99.90
18225;DHT22;9237;48.590;8.854;2022-09-21T04:18:59;3.50;99.90
18225;DHT22;9237;48.590;8.854;2022-09-21T04:21:26;3.30;99.90
18225;DHT22;9237;48.590;8.854;2022-09-21T04:23:54;3.20;99.90
18225;DHT22;9237;48.590;8.854;2022-09-21T04:26:24;3.10;99.90
18225;DHT22;9237;48.590;8.854;2022-09-21T04:28:53;3.20;99.90
18225;DHT22;9237;48.590;8.854;2022-09-21T04:31:20;3.30;99.90
18225;DHT22;9237;48.590;8.854;2022-09-21T04:33:48;3.40;99.90
18225;DHT22;9237;48.590;8.854;2022-09-21T04:36:16;3.10;99.90
18225;DHT22;9237;48.590;8.854;2022-09-21T04:38:43;3.10;99.90
18225;DHT22;9237;48.590;8.854;2022-09-21T04:41:10;3.10;99.90
18225;DHT22;9237;48.590;8.854;2022-09-21T04:43:39;3.30;99.90
18225;DHT22;9237;48.590;8.854;2022-09-21T04:46:10;3.50;99.90
18225;DHT22;9237;48.590;8.854;2022-09-21T04:48:38;3.30;99.90
18225;DHT22;9237;48.590;8.854;2022-09-21T04:51:05;3.00;99.90
18225;DHT22;9237;48.590;8.854;2022-09-21T04:53:33;2.90;99.90
18225;DHT22;9237;48.590;8.854;2022-09-21T04:56:00;2.90;99.90
18225;DHT22;9237;48.590;8.854;2022-09-21T04:58:28;2.80;99.90
18225;DHT22;9237;48.590;8.854;2022-09-21T05:00:55;2.70;99.90
18225;DHT22;9237;48.590;8.854;2022-09-21T05:03:24;2.70;99.90
18225;DHT22;9237;48.590;8.854;2022-09-21T05:05:52;2.80;99.90
18225;DHT22;9237;48.590;8.854;2022-09-21T05:08:20;3.00;99.90
18225;DHT22;9237;48.590;8.854;2022-09-21T05:11:10;3.00;99.90
18225;DHT22;9237;48.590;8.854;2022-09-21T05:13:41;3.10;99.90
18225;DHT22;9237;48.590;8.854;2022-09-21T05:16:08;3.40;99.90
18225;DHT22;9237;48.590;8.854;2022-09-21T05:18:45;3.10;99.90
18225;DHT22;9237;48.590;8.854;2022-09-21T05:21:13;3.20;99.90
18225;DHT22;9237;48.590;8.854;2022-09-21T05:23:40;3.10;99.90
18225;DHT22;9237;48.590;8.854;2022-09-21T05:26:07;3.10;99.90
18225;DHT22;9237;48.590;8.854;2022-09-21T05:28:35;3.00;99.90
18225;DHT22;9237;48.590;8.854;2022-09-21T05:31:10;3.10;99.90
18225;DHT22;9237;48.590;8.854;2022-09-21T05:33:41;3.00;99.90
18225;DHT22;9237;48.590;8.854;2022-09-21T05:36:16;3.10;99.90
18225;DHT22;9237;48.590;8.854;2022-09-21T05:38:52;3.30;99.90
18225;DHT22;9237;48.590;8.854;2022-09-21T05:41:19;3.30;99.90
18225;DHT22;9237;48.590;8.854;2022-09-21T05:43:46;3.30;99.90
18225;DHT22;9237;48.590;8.854;2022-09-21T05:46:18;3.50;99.90
18225;DHT22;9237;48.590;8.854;2022-09-21T05:48:52;3.50;99.90
18225;DHT22;9237;48.590;8.854;2022-09-21T05:51:31;3.60;99.90
18225;DHT22;9237;48.590;8.854;2022-09-21T05:54:03;3.70;99.90
18225;DHT22;9237;48.590;8.854;2022-09-21T05:56:41;3.80;99.90
18225;DHT22;9237;48.590;8.854;2022-09-21T05:59:32;4.10;99.90
18225;DHT22;9237;48.590;8.854;2022-09-21T06:02:05;4.50;99.90
18225;DHT22;9237;48.590;8.854;2022-09-21T06:04:34;4.70;99.90
18225;DHT22;9237;48.590;8.854;2022-09-21T06:07:03;4.90;99.90
18225;DHT22;9237;48.590;8.854;2022-09-21T06:09:29;5.00;99.90
18225;DHT22;9237;48.590;8.854;2022-09-21T06:11:56;5.20;99.90
18225;DHT22;9237;48.590;8.854;2022-09-21T06:14:23;5.50;99.90
18225;DHT22;9237;48.590;8.854;2022-09-21T06:16:51;5.60;99.90
18225;DHT22;9237;48.590;8.854;2022-09-21T06:19:18;5.70;99.90
18225;DHT22;9237;48.590;8.854;2022-09-21T06:21:45;6.00;99.90
18225;DHT22;9237;48.590;8.854;2022-09-21T06:24:13;6.30;99.90
18225;DHT22;9237;48.590;8.854;2022-09-21T06:26:40;6.70;99.90
18225;DHT22;9237;48.590;8.854;2022-09-21T06:29:07;7.20;99.90
18225;DHT22;9237;48.590;8.854;2022-09-21T06:31:34;7.70;99.90
18225;DHT22;9237;48.590;8.854;2022-09-21T06:34:01;8.20;99.90
18225;DHT22;9237;48.590;8.854;2022-09-21T06:36:28;8.70;99.90
18225;DHT22;9237;48.590;8.854;2022-09-21T06:38:55;10.30;99.90
18225;DHT22;9237;48.590;8.854;2022-09-21T06:41:23;9.60;99.90
18225;DHT22;9237;48.590;8.854;2022-09-21T06:43:52;9.90;99.90
18225;DHT22;9237;48.590;8.854;2022-09-21T06:46:21;10.30;99.90
18225;DHT22;9237;48.590;8.854;2022-09-21T06:48:48;10.50;99.90
18225;DHT22;9237;48.590;8.854;2022-09-21T06:51:15;10.40;99.90
18225;DHT22;9237;48.590;8.854;2022-09-21T06:53:42;10.40;99.90
18225;DHT22;9237;48.590;8.854;2022-09-21T06:56:09;10.50;99.90
18225;DHT22;9237;48.590;8.854;2022-09-21T06:58:38;10.70;99.90
18225;DHT22;9237;48.590;8.854;2022-09-21T07:01:06;10.70;99.90
18225;DHT22;9237;48.590;8.854;2022-09-21T07:03:33;10.80;99.90
18225;DHT22;9237;48.590;8.854;2022-09-21T07:06:00;10.90;99.90
18225;DHT22;9237;48.590;8.854;2022-09-21T07:08:26;11.00;99.90
18225;DHT22;9237;48.590;8.854;2022-09-21T07:10:56;11.10;99.90
18225;DHT22;9237;48.590;8.854;2022-09-21T07:13:24;11.20;99.90
18225;DHT22;9237;48.590;8.854;2022-09-21T07:15:52;11.40;99.90
18225;DHT22;9237;48.590;8.854;2022-09-21T07:18:18;11.80;99.90
18225;DHT22;9237;48.590;8.854;2022-09-21T07:20:45;12.10;99.90
18225;DHT22;9237;48.590;8.854;2022-09-21T07:23:15;12.40;99.90
18225;DHT22;9237;48.590;8.854;2022-09-21T07:25:42;12.70;99.90
18225;DHT22;9237;48.590;8.854;2022-09-21T07:28:09;12.90;99.90
18225;DHT22;9237;48.590;8.854;2022-09-21T07:30:37;13.40;99.90
18225;DHT22;9237;48.590;8.854;2022-09-21T07:33:06;14.00;99.90
18225;DHT22;9237;48.590;8.854;2022-09-21T07:35:33;14.10;99.90
18225;DHT22;9237;48.590;8.854;2022-09-21T07:38:03;14.10;99.90
18225;DHT22;9237;48.590;8.854;2022-09-21T07:40:30;14.70;99.90
18225;DHT22;9237;48.590;8.854;2022-09-21T07:42:57;15.00;99.90
18225;DHT22;9237;48.590;8.854;2022-09-21T07:45:24;15.70;99.90
18225;DHT22;9237;48.590;8.854;2022-09-21T07:47:51;15.70;99.90
18225;DHT22;9237;48.590;8.854;2022-09-21T07:50:20;15.70;99.90
18225;DHT22;9237;48.590;8.854;2022-09-21T07:52:47;15.40;99.90
18225;DHT22;9237;48.590;8.854;2022-09-21T07:55:14;15.50;99.90
18225;DHT22;9237;48.590;8.854;2022-09-21T07:57:41;15.90;99.90
18225;DHT22;9237;48.590;8.854;2022-09-21T08:00:25;16.30;99.90
18225;DHT22;9237;48.590;8.854;2022-09-21T08:02:53;15.50;99.90
18225;DHT22;9237;48.590;8.854;2022-09-21T08:05:21;15.10;99.90
18225;DHT22;9237;48.590;8.854;2022-09-21T08:07:48;15.80;99.90
18225;DHT22;9237;48.590;8.854;2022-09-21T08:10:15;15.20;99.90
18225;DHT22;9237;48.590;8.854;2022-09-21T08:12:42;15.80;99.90
18225;DHT22;9237;48.590;8.854;2022-09-21T08:15:09;16.10;99.90
18225;DHT22;9237;48.590;8.854;2022-09-21T08:17:39;16.10;99.90
18225;DHT22;9237;48.590;8.854;2022-09-21T08:20:06;16.30;99.90
18225;DHT22;9237;48.590;8.854;2022-09-21T08:22:34;17.00;99.90
18225;DHT22;9237;48.590;8.854;2022-09-21T08:25:02;17.40;99.90
18225;DHT22;9237;48.590;8.854;2022-09-21T08:27:29;17.50;99.90
18225;DHT22;9237;48.590;8.854;2022-09-21T08:29:56;18.00;99.90
18225;DHT22;9237;48.590;8.854;2022-09-21T08:32:23;17.70;99.90
18225;DHT22;9237;48.590;8.854;2022-09-21T08:34:50;17.10;99.90
18225;DHT22;9237;48.590;8.854;2022-09-21T08:37:16;18.00;99.90
18225;DHT22;9237;48.590;8.854;2022-09-21T08:39:47;18.60;99.90
18225;DHT22;9237;48.590;8.854;2022-09-21T08:42:32;19.20;99.90
18225;DHT22;9237;48.590;8.854;2022-09-21T08:45:02;19.40;99.90
18225;DHT22;9237;48.590;8.854;2022-09-21T08:47:37;19.50;99.90
18225;DHT22;9237;48.590;8.854;2022-09-21T08:50:18;19.50;99.90
18225;DHT22;9237;48.590;8.854;2022-09-21T08:52:48;19.50;99.90
18225;DHT22;9237;48.590;8.854;2022-09-21T08:55:18;19.10;99.90
18225;DHT22;9237;48.590;8.854;2022-09-21T08:57:45;18.30;99.90
18225;DHT22;9237;48.590;8.854;2022-09-21T09:00:14;18.40;99.90
18225;DHT22;9237;48.590;8.854;2022-09-21T09:02:55;19.40;99.90
18225;DHT22;9237;48.590;8.854;2022-09-21T09:05:36;19.70;99.60
18225;DHT22;9237;48.590;8.854;2022-09-21T09:11:08;18.30;99.90
18225;DHT22;9237;48.590;8.854;2022-09-21T09:13:56;18.50;99.60
18225;DHT22;9237;48.590;8.854;2022-09-21T09:16:31;18.40;97.80
18225;DHT22;9237;48.590;8.854;2022-09-21T09:19:07;18.30;96.20
18225;DHT22;9237;48.590;8.854;2022-09-21T09:21:39;17.00;99.00
18225;DHT22;9237;48.590;8.854;2022-09-21T09:24:10;18.00;99.90
18225;DHT22;9237;48.590;8.854;2022-09-21T09:26:43;18.50;98.80
18225;DHT22;9237;48.590;8.854;2022-09-21T09:29:16;18.00;97.20
18225;DHT22;9237;48.590;8.854;2022-09-21T09:31:47;17.80;98.00
18225;DHT22;9237;48.590;8.854;2022-09-21T09:34:17;17.90;98.70
18225;DHT22;9237;48.590;8.854;2022-09-21T09:36:47;18.20;96.20
18225;DHT22;9237;48.590;8.854;2022-09-21T09:39:16;18.10;96.30
18225;DHT22;9237;48.590;8.854;2022-09-21T09:41:56;17.00;95.80
18225;DHT22;9237;48.590;8.854;2022-09-21T09:44:44;17.80;95.70
18225;DHT22;9237;48.590;8.854;2022-09-21T09:47:25;18.20;95.60
18225;DHT22;9237;48.590;8.854;2022-09-21T09:50:01;18.40;93.40
18225;DHT22;9237;48.590;8.854;2022-09-21T09:52:30;17.70;95.30
18225;DHT22;9237;48.590;8.854;2022-09-21T09:54:58;16.90;95.40
18225;DHT22;9237;48.590;8.854;2022-09-21T09:57:29;18.00;94.80
18225;DHT22;9237;48.590;8.854;2022-09-21T09:59:58;18.00;92.70
18225;DHT22;9237;48.590;8.854;2022-09-21T10:02:27;17.30;93.40
18225;DHT22;9237;48.590;8.854;2022-09-21T10:04:55;17.30;94.90
18225;DHT22;9237;48.590;8.854;2022-09-21T10:07:37;16.80;93.60
18225;DHT22;9237;48.590;8.854;2022-09-21T10:10:31;17.30;94.70
18225;DHT22;9237;48.590;8.854;2022-09-21T10:13:07;18.10;93.40
18225;DHT22;9237;48.590;8.854;2022-09-21T10:15:40;18.00;92.10
18225;DHT22;9237;48.590;8.854;2022-09-21T10:18:16;18.80;90.90
18225;DHT22;9237;48.590;8.854;2022-09-21T10:20:53;18.90;90.10
18225;DHT22;9237;48.590;8.854;2022-09-21T10:23:20;18.20;90.80
18225;DHT22;9237;48.590;8.854;2022-09-21T10:25:53;18.20;88.40
18225;DHT22;9237;48.590;8.854;2022-09-21T10:28:22;17.70;90.10
18225;DHT22;9237;48.590;8.854;2022-09-21T10:30:49;17.00;91.50
18225;DHT22;9237;48.590;8.854;2022-09-21T10:33:50;16.50;92.20
18225;DHT22;9237;48.590;8.854;2022-09-21T10:36:28;16.50;92.60
18225;DHT22;9237;48.590;8.854;2022-09-21T10:38:57;16.50;92.70
18225;DHT22;9237;48.590;8.854;2022-09-21T10:41:36;17.00;91.30
18225;DHT22;9237;48.590;8.854;2022-09-21T10:44:12;16.80;91.80
18225;DHT22;9237;48.590;8.854;2022-09-21T10:46:40;17.10;92.20
18225;DHT22;9237;48.590;8.854;2022-09-21T10:49:14;17.30;92.40
18225;DHT22;9237;48.590;8.854;2022-09-21T10:51:45;17.20;92.00
18225;DHT22;9237;48.590;8.854;2022-09-21T10:54:19;17.20;91.10
18225;DHT22;9237;48.590;8.854;2022-09-21T10:56:52;17.00;90.80
18225;DHT22;9237;48.590;8.854;2022-09-21T10:59:23;15.90;91.60
18225;DHT22;9237;48.590;8.854;2022-09-21T11:01:51;16.30;93.50
18225;DHT22;9237;48.590;8.854;2022-09-21T11:04:29;16.20;93.60
18225;DHT22;9237;48.590;8.854;2022-09-21T11:07:03;16.70;92.20
18225;DHT22;9237;48.590;8.854;2022-09-21T11:09:34;17.20;92.30
18225;DHT22;9237;48.590;8.854;2022-09-21T11:12:13;16.40;91.80
18225;DHT22;9237;48.590;8.854;2022-09-21T11:14:50;16.20;93.90
18225;DHT22;9237;48.590;8.854;2022-09-21T11:17:26;16.30;92.00
18225;DHT22;9237;48.590;8.854;2022-09-21T11:20:07;16.60;93.60
18225;DHT22;9237;48.590;8.854;2022-09-21T11:22:41;16.70;92.80
18225;DHT22;9237;48.590;8.854;2022-09-21T11:25:24;16.80;92.90
18225;DHT22;9237;48.590;8.854;2022-09-21T11:28:00;17.10;93.00
18225;DHT22;9237;48.590;8.854;2022-09-21T11:30:44;16.40;92.50
18225;DHT22;9237;48.590;8.854;2022-09-21T11:33:30;15.90;93.70
18225;DHT22;9237;48.590;8.854;2022-09-21T11:36:08;15.50;94.30
18225;DHT22;9237;48.590;8.854;2022-09-21T11:38:45;15.30;94.90
18225;DHT22;9237;48.590;8.854;2022-09-21T11:41:37;15.50;94.40
18225;DHT22;9237;48.590;8.854;2022-09-21T11:44:19;15.50;94.20
18225;DHT22;9237;48.590;8.854;2022-09-21T11:46:53;15.50;95.70
18225;DHT22;9237;48.590;8.854;2022-09-21T11:49:45;15.70;93.70
18225;DHT22;9237;48.590;8.854;2022-09-21T11:52:24;15.50;94.00
18225;DHT22;9237;48.590;8.854;2022-09-21T11:55:17;15.60;93.70
18225;DHT22;9237;48.590;8.854;2022-09-21T11:57:53;15.70;92.90
18225;DHT22;9237;48.590;8.854;2022-09-21T12:00:25;15.70;94.60
18225;DHT22;9237;48.590;8.854;2022-09-21T12:03:36;15.90;94.80
18225;DHT22;9237;48.590;8.854;2022-09-21T12:06:28;16.00;93.20
18225;DHT22;9237;48.590;8.854;2022-09-21T12:09:18;15.90;93.50
18225;DHT22;9237;48.590;8.854;2022-09-21T12:11:54;15.40;94.00
18225;DHT22;9237;48.590;8.854;2022-09-21T12:14:29;15.40;94.40
18225;DHT22;9237;48.590;8.854;2022-09-21T12:17:06;15.90;93.70
18225;DHT22;9237;48.590;8.854;2022-09-21T12:19:40;16.20;92.30
18225;DHT22;9237;48.590;8.854;2022-09-21T12:22:14;16.30;91.70
18225;DHT22;9237;48.590;8.854;2022-09-21T12:24:45;16.70;91.70
18225;DHT22;9237;48.590;8.854;2022-09-21T12:27:19;16.20;90.40
18225;DHT22;9237;48.590;8.854;2022-09-21T12:29:51;16.20;91.50
18225;DHT22;9237;48.590;8.854;2022-09-21T12:32:22;16.60;90.80
18225;DHT22;9237;48.590;8.854;2022-09-21T12:34:55;16.10;91.50
18225;DHT22;9237;48.590;8.854;2022-09-21T12:37:28;16.40;91.60
18225;DHT22;9237;48.590;8.854;2022-09-21T12:40:04;16.30;92.20
18225;DHT22;9237;48.590;8.854;2022-09-21T12:42:39;15.60;91.60
18225;DHT22;9237;48.590;8.854;2022-09-21T12:45:16;15.40;91.90
18225;DHT22;9237;48.590;8.854;2022-09-21T12:47:50;15.90;92.50
18225;DHT22;9237;48.590;8.854;2022-09-21T12:50:25;17.00;90.70
18225;DHT22;9237;48.590;8.854;2022-09-21T12:52:53;17.80;86.70
18225;DHT22;9237;48.590;8.854;2022-09-21T12:55:33;19.20;82.20
18225;DHT22;9237;48.590;8.854;2022-09-21T12:58:09;20.20;77.20
18225;DHT22;9237;48.590;8.854;2022-09-21T13:00:52;20.50;73.70
18225;DHT22;9237;48.590;8.854;2022-09-21T13:03:28;20.50;75.10
18225;DHT22;9237;48.590;8.854;2022-09-21T13:06:17;19.40;76.80
18225;DHT22;9237;48.590;8.854;2022-09-21T13:08:49;18.20;79.60
18225;DHT22;9237;48.590;8.854;2022-09-21T13:11:16;18.40;84.00
18225;DHT22;9237;48.590;8.854;2022-09-21T13:13:48;19.10;82.90
18225;DHT22;9237;48.590;8.854;2022-09-21T13:16:25;19.20;81.00
18225;DHT22;9237;48.590;8.854;2022-09-21T13:18:54;19.10;81.00
18225;DHT22;9237;48.590;8.854;2022-09-21T13:21:25;18.30;81.50
18225;DHT22;9237;48.590;8.854;2022-09-21T13:23:56;17.60;85.10
18225;DHT22;9237;48.590;8.854;2022-09-21T13:26:34;16.50;86.20
18225;DHT22;9237;48.590;8.854;2022-09-21T13:29:04;17.30;85.90
18225;DHT22;9237;48.590;8.854;2022-09-21T13:34:26;21.00;79.40
18225;DHT22;9237;48.590;8.854;2022-09-21T13:37:26;21.20;72.10
18225;DHT22;9237;48.590;8.854;2022-09-21T13:43:16;18.90;77.80
18225;DHT22;9237;48.590;8.854;2022-09-21T13:45:55;18.20;79.50
18225;DHT22;9237;48.590;8.854;2022-09-21T13:48:26;19.70;80.20
18225;DHT22;9237;48.590;8.854;2022-09-21T13:50:59;19.00;74.40
18225;DHT22;9237;48.590;8.854;2022-09-21T13:53:33;18.70;75.80
18225;DHT22;9237;48.590;8.854;2022-09-21T13:56:13;18.70;75.80
18225;DHT22;9237;48.590;8.854;2022-09-21T13:58:47;18.50;75.40
18225;DHT22;9237;48.590;8.854;2022-09-21T14:01:18;19.80;70.90
18225;DHT22;9237;48.590;8.854;2022-09-21T14:03:48;19.80;70.60
18225;DHT22;9237;48.590;8.854;2022-09-21T14:06:18;20.60;70.20
18225;DHT22;9237;48.590;8.854;2022-09-21T14:08:51;20.30;71.70
18225;DHT22;9237;48.590;8.854;2022-09-21T14:11:26;20.50;71.00
18225;DHT22;9237;48.590;8.854;2022-09-21T14:14:14;20.50;69.50
18225;DHT22;9237;48.590;8.854;2022-09-21T14:17:02;20.20;69.70
18225;DHT22;9237;48.590;8.854;2022-09-21T14:19:57;20.00;71.20
18225;DHT22;9237;48.590;8.854;2022-09-21T14:22:41;19.70;70.40
18225;DHT22;9237;48.590;8.854;2022-09-21T14:28:11;19.90;71.10
18225;DHT22;9237;48.590;8.854;2022-09-21T14:30:39;20.10;70.00
18225;DHT22;9237;48.590;8.854;2022-09-21T14:33:23;20.40;70.80
18225;DHT22;9237;48.590;8.854;2022-09-21T14:35:51;20.30;68.30
18225;DHT22;9237;48.590;8.854;2022-09-21T14:38:22;20.90;69.00
18225;DHT22;9237;48.590;8.854;2022-09-21T14:40:53;20.70;68.50
18225;DHT22;9237;48.590;8.854;2022-09-21T14:43:25;20.80;68.40
18225;DHT22;9237;48.590;8.854;2022-09-21T14:46:07;21.10;69.10
18225;DHT22;9237;48.590;8.854;2022-09-21T14:48:44;20.70;69.40
18225;DHT22;9237;48.590;8.854;2022-09-21T14:51:21;19.60;72.20
18225;DHT22;9237;48.590;8.854;2022-09-21T14:54:06;17.80;77.00
18225;DHT22;9237;48.590;8.854;2022-09-21T14:56:53;16.70;82.10
18225;DHT22;9237;48.590;8.854;2022-09-21T14:59:33;16.20;83.50
18225;DHT22;9237;48.590;8.854;2022-09-21T15:02:13;15.90;85.00
18225;DHT22;9237;48.590;8.854;2022-09-21T15:04:51;17.40;80.90
18225;DHT22;9237;48.590;8.854;2022-09-21T15:07:30;18.30;77.20
18225;DHT22;9237;48.590;8.854;2022-09-21T15:10:26;19.20;74.20
18225;DHT22;9237;48.590;8.854;2022-09-21T15:16:26;18.60;72.30
18225;DHT22;9237;48.590;8.854;2022-09-21T15:19:07;18.90;71.40
18225;DHT22;9237;48.590;8.854;2022-09-21T15:21:40;18.80;71.30
18225;DHT22;9237;48.590;8.854;2022-09-21T15:24:21;18.80;73.30
18225;DHT22;9237;48.590;8.854;2022-09-21T15:26:49;18.80;73.50
18225;DHT22;9237;48.590;8.854;2022-09-21T15:29:23;19.70;71.00
18225;DHT22;9237;48.590;8.854;2022-09-21T15:31:51;21.10;69.50
18225;DHT22;9237;48.590;8.854;2022-09-21T15:34:18;21.30;68.40
18225;DHT22;9237;48.590;8.854;2022-09-21T15:36:45;20.40;69.40
18225;DHT22;9237;48.590;8.854;2022-09-21T15:39:25;20.20;70.40
18225;DHT22;9237;48.590;8.854;2022-09-21T15:42:14;20.70;67.60
18225;DHT22;9237;48.590;8.854;2022-09-21T15:44:47;18.70;72.80
18225;DHT22;9237;48.590;8.854;2022-09-21T15:47:21;17.10;75.50
18225;DHT22;9237;48.590;8.854;2022-09-21T15:49:48;16.00;80.40
18225;DHT22;9237;48.590;8.854;2022-09-21T15:52:25;15.60;83.10
18225;DHT22;9237;48.590;8.854;2022-09-21T15:54:57;15.40;84.80
18225;DHT22;9237;48.590;8.854;2022-09-21T15:57:30;15.10;84.70
18225;DHT22;9237;48.590;8.854;2022-09-21T16:00:05;15.00;85.10
18225;DHT22;9237;48.590;8.854;2022-09-21T16:02:37;15.00;86.90
18225;DHT22;9237;48.590;8.854;2022-09-21T16:05:07;15.20;86.60
18225;DHT22;9237;48.590;8.854;2022-09-21T16:07:40;15.40;86.20
18225;DHT22;9237;48.590;8.854;2022-09-21T16:10:38;15.60;85.20
18225;DHT22;9237;48.590;8.854;2022-09-21T16:13:17;15.70;85.00
18225;DHT22;9237;48.590;8.854;2022-09-21T16:16:05;15.50;85.90
18225;DHT22;9237;48.590;8.854;2022-09-21T16:18:40;15.40;85.00
18225;DHT22;9237;48.590;8.854;2022-09-21T16:21:16;15.30;83.70
18225;DHT22;9237;48.590;8.854;2022-09-21T16:23:46;15.30;84.80
18225;DHT22;9237;48.590;8.854;2022-09-21T16:26:19;15.30;83.70
18225;DHT22;9237;48.590;8.854;2022-09-21T16:28:46;15.10;84.40
18225;DHT22;9237;48.590;8.854;2022-09-21T16:31:29;15.00;83.30
18225;DHT22;9237;48.590;8.854;2022-09-21T16:36:57;14.80;85.10
18225;DHT22;9237;48.590;8.854;2022-09-21T16:39:24;14.90;84.80
18225;DHT22;9237;48.590;8.854;2022-09-21T16:41:54;14.80;85.30
18225;DHT22;9237;48.590;8.854;2022-09-21T16:44:25;14.80;85.50